createdAt,value
2023-03-29T00:01:35.933Z,6.44
2023-03-29T00:03:07.888Z,5.40
2023-03-29T00:04:39.244Z,6.28
2023-03-29T00:06:10.581Z,6.24
2023-03-29T00:07:41.898Z,6.29
2023-03-29T00:09:13.100Z,6.35
2023-03-29T00:10:44.304Z,5.83
2023-03-29T00:12:15.697Z,6.07
2023-03-29T00:13:47.171Z,5.58
2023-03-29T00:15:18.912Z,6.11
2023-03-29T00:16:50.334Z,7.66
2023-03-29T00:18:21.648Z,6.34
2023-03-29T00:19:52.828Z,6.47
2023-03-29T00:21:24.097Z,8.54
2023-03-29T00:22:55.570Z,6.33
2023-03-29T00:24:26.935Z,7.62
2023-03-29T00:25:58.391Z,7.02
2023-03-29T00:27:29.659Z,7.71
2023-03-29T00:29:00.975Z,6.87
2023-03-29T00:30:32.304Z,8.37
2023-03-29T00:32:03.531Z,5.90
2023-03-29T00:33:34.766Z,8.92
2023-03-29T00:35:06.489Z,7.08
2023-03-29T00:36:37.999Z,6.95
2023-03-29T00:38:09.301Z,5.83
2023-03-29T00:39:40.712Z,6.34
2023-03-29T00:41:12.359Z,6.25
2023-03-29T00:42:43.553Z,6.77
2023-03-29T00:44:14.814Z,7.69
2023-03-29T00:45:46.072Z,5.70
2023-03-29T00:47:17.482Z,5.67
2023-03-29T00:48:49.087Z,6.18
2023-03-29T00:50:20.766Z,6.25
2023-03-29T00:51:57.142Z,6.48
2023-03-29T00:53:28.478Z,6.56
2023-03-29T00:55:00.035Z,7.78
2023-03-29T00:56:31.606Z,5.91
2023-03-29T00:58:02.885Z,7.30
2023-03-29T00:59:34.203Z,6.58
2023-03-29T01:01:05.520Z,6.80
2023-03-29T01:02:37.126Z,5.98
2023-03-29T01:04:08.696Z,8.24
2023-03-29T01:05:40.001Z,7.52
2023-03-29T01:07:12.751Z,6.69
2023-03-29T01:08:44.190Z,5.11
2023-03-29T01:10:15.545Z,5.66
2023-03-29T01:11:47.111Z,5.72
2023-03-29T01:13:18.766Z,5.62
2023-03-29T01:14:50.428Z,7.71
2023-03-29T01:16:21.785Z,6.16
2023-03-29T01:17:53.094Z,6.91
2023-03-29T01:19:24.561Z,5.40
2023-03-29T01:20:55.978Z,5.00
2023-03-29T01:22:27.608Z,5.66
2023-03-29T01:23:59.583Z,7.65
2023-03-29T01:25:30.904Z,6.18
2023-03-29T01:27:02.078Z,6.87
2023-03-29T01:28:33.681Z,5.22
2023-03-29T01:30:05.428Z,5.28
2023-03-29T01:31:36.934Z,5.87
2023-03-29T01:33:08.516Z,5.14
2023-03-29T01:34:39.861Z,6.94
2023-03-29T01:36:11.220Z,6.91
2023-03-29T01:37:42.475Z,5.45
2023-03-29T01:39:13.714Z,6.36
2023-03-29T01:40:45.155Z,6.93
2023-03-29T01:42:16.393Z,6.60
2023-03-29T01:43:48.215Z,5.87
2023-03-29T01:45:19.808Z,6.27
2023-03-29T01:46:51.070Z,6.69
2023-03-29T01:48:22.588Z,7.01
2023-03-29T01:49:53.804Z,5.10
2023-03-29T01:51:25.074Z,6.97
2023-03-29T01:52:56.694Z,4.80
2023-03-29T01:54:28.093Z,5.80
2023-03-29T01:56:00.579Z,5.89
2023-03-29T01:57:31.834Z,5.58
2023-03-29T01:59:03.053Z,5.70
2023-03-29T02:00:34.539Z,5.67
2023-03-29T02:02:05.856Z,5.16
2023-03-29T02:03:37.521Z,5.82
2023-03-29T02:05:09.120Z,4.60
2023-03-29T02:06:41.118Z,4.82
2023-03-29T02:08:12.543Z,5.66
2023-03-29T02:09:43.854Z,5.05
2023-03-29T02:11:15.095Z,6.76
2023-03-29T02:12:46.484Z,6.72
2023-03-29T02:14:17.911Z,7.15
2023-03-29T02:15:49.395Z,5.72
2023-03-29T02:17:21.054Z,5.78
2023-03-29T02:18:52.299Z,4.48
2023-03-29T02:20:23.526Z,6.78
2023-03-29T02:21:54.738Z,5.78
2023-03-29T02:23:26.000Z,4.88
2023-03-29T02:24:57.609Z,4.41
2023-03-29T02:26:28.922Z,5.99
2023-03-29T02:28:00.266Z,4.99
2023-03-29T02:29:31.532Z,5.71
2023-03-29T02:31:03.218Z,5.80
2023-03-29T02:32:34.828Z,6.24
2023-03-29T02:34:06.105Z,5.07
2023-03-29T02:35:38.729Z,5.73
2023-03-29T02:37:10.182Z,6.21
2023-03-29T02:38:41.838Z,6.22
2023-03-29T02:40:13.252Z,6.76
2023-03-29T02:41:44.537Z,5.07
2023-03-29T02:43:16.021Z,4.92
2023-03-29T02:44:47.709Z,5.93
2023-03-29T02:46:19.329Z,4.70
2023-03-29T02:47:50.941Z,5.01
2023-03-29T02:49:22.514Z,5.75
2023-03-29T02:50:54.135Z,6.11
2023-03-29T02:52:25.429Z,6.14
2023-03-29T02:53:56.936Z,6.40
2023-03-29T02:55:28.295Z,4.62
2023-03-29T02:56:59.968Z,5.46
2023-03-29T02:58:31.363Z,7.22
2023-03-29T03:00:02.818Z,4.90
2023-03-29T03:01:34.267Z,4.78
2023-03-29T03:03:05.739Z,6.15
2023-03-29T03:04:37.028Z,5.13
2023-03-29T03:06:08.582Z,5.36
2023-03-29T03:07:40.129Z,5.85
2023-03-29T03:09:11.751Z,6.79
2023-03-29T03:10:43.731Z,5.76
2023-03-29T03:12:15.211Z,5.52
2023-03-29T03:13:46.702Z,4.88
2023-03-29T03:15:18.239Z,6.39
2023-03-29T03:16:49.754Z,6.95
2023-03-29T03:18:21.374Z,5.46
2023-03-29T03:19:52.737Z,6.27
2023-03-29T03:21:24.250Z,5.36
2023-03-29T03:22:55.738Z,6.44
2023-03-29T03:24:27.277Z,5.84
2023-03-29T03:25:58.618Z,6.73
2023-03-29T03:27:30.147Z,5.99
2023-03-29T03:29:01.424Z,6.18
2023-03-29T03:30:32.913Z,5.88
2023-03-29T03:32:04.471Z,6.91
2023-03-29T03:33:35.988Z,6.27
2023-03-29T03:35:07.434Z,5.31
2023-03-29T03:36:39.336Z,6.28
2023-03-29T03:38:10.662Z,6.85
2023-03-29T03:39:41.887Z,6.15
2023-03-29T03:41:13.370Z,5.64
2023-03-29T03:42:44.640Z,6.13
2023-03-29T03:44:16.497Z,6.98
2023-03-29T03:45:48.106Z,5.08
2023-03-29T03:47:19.431Z,5.31
2023-03-29T03:48:50.771Z,5.74
2023-03-29T03:50:22.308Z,5.76
2023-03-29T03:51:53.906Z,6.23
2023-03-29T03:53:25.595Z,6.64
2023-03-29T03:54:57.270Z,4.91
2023-03-29T03:56:28.504Z,5.37
2023-03-29T03:57:59.899Z,5.71
2023-03-29T03:59:31.617Z,5.99
2023-03-29T04:01:03.382Z,5.87
2023-03-29T04:02:34.997Z,5.92
2023-03-29T04:04:06.529Z,5.96
2023-03-29T04:05:37.778Z,5.80
2023-03-29T04:07:09.045Z,6.14
2023-03-29T04:08:40.231Z,6.61
2023-03-29T04:10:11.660Z,8.34
2023-03-29T04:11:43.069Z,7.99
2023-03-29T04:13:14.847Z,5.37
2023-03-29T04:14:46.337Z,7.14
2023-03-29T04:16:18.057Z,4.91
2023-03-29T04:17:49.868Z,6.34
2023-03-29T04:19:21.871Z,6.42
2023-03-29T04:20:53.510Z,5.63
2023-03-29T04:22:24.787Z,7.41
2023-03-29T04:23:56.034Z,6.06
2023-03-29T04:25:27.208Z,5.49
2023-03-29T04:26:58.834Z,6.91
2023-03-29T04:28:30.185Z,7.97
2023-03-29T04:30:01.460Z,7.21
2023-03-29T04:31:33.528Z,8.56
2023-03-29T04:33:05.213Z,7.29
2023-03-29T04:34:37.515Z,7.74
2023-03-29T04:36:09.089Z,6.57
2023-03-29T04:37:40.479Z,7.45
2023-03-29T04:39:11.956Z,6.91
2023-03-29T04:40:43.362Z,7.92
2023-03-29T04:42:14.669Z,7.12
2023-03-29T04:43:46.183Z,7.88
2023-03-29T04:45:18.142Z,7.84
2023-03-29T04:46:50.103Z,10.43
2023-03-29T04:48:21.983Z,7.81
2023-03-29T04:49:54.251Z,6.94
2023-03-29T04:51:26.224Z,8.52
2023-03-29T04:52:57.564Z,7.48
2023-03-29T04:54:29.069Z,8.40
2023-03-29T04:56:00.807Z,8.83
2023-03-29T04:57:32.747Z,8.17
2023-03-29T04:59:04.303Z,7.59
2023-03-29T05:00:35.821Z,8.32
2023-03-29T05:02:07.137Z,9.44
2023-03-29T05:03:38.844Z,7.15
2023-03-29T05:05:50.468Z,8.58
2023-03-29T05:07:21.694Z,8.18
2023-03-29T05:08:53.034Z,6.90
2023-03-29T05:10:26.890Z,8.09
2023-03-29T05:11:58.274Z,8.90
2023-03-29T05:13:29.771Z,9.66
2023-03-29T05:15:01.047Z,8.06
2023-03-29T05:16:32.344Z,7.60
2023-03-29T05:18:03.724Z,9.17
2023-03-29T05:19:35.135Z,6.89
2023-03-29T05:21:06.672Z,7.29
2023-03-29T05:22:38.041Z,8.50
2023-03-29T05:24:09.716Z,8.51
2023-03-29T05:25:41.728Z,8.60
2023-03-29T05:27:12.965Z,8.94
2023-03-29T05:28:44.389Z,7.83
2023-03-29T05:30:41.206Z,8.16
2023-03-29T05:32:12.696Z,7.08
2023-03-29T05:33:44.208Z,8.09
2023-03-29T05:35:15.415Z,7.96
2023-03-29T05:36:46.729Z,7.11
2023-03-29T05:38:18.270Z,6.48
2023-03-29T05:39:49.634Z,8.11
2023-03-29T05:41:20.862Z,9.33
2023-03-29T05:42:52.389Z,7.96
2023-03-29T05:44:29.167Z,8.85
2023-03-29T05:46:00.454Z,8.17
2023-03-29T05:47:31.895Z,11.65
2023-03-29T05:49:03.237Z,7.89
2023-03-29T05:50:34.544Z,8.87
2023-03-29T05:52:05.976Z,7.87
2023-03-29T05:53:37.286Z,9.76
2023-03-29T05:55:08.817Z,8.64
2023-03-29T05:56:40.244Z,9.10
2023-03-29T05:58:11.676Z,10.92
2023-03-29T05:59:43.075Z,8.60
2023-03-29T06:01:14.601Z,7.49
2023-03-29T06:02:46.675Z,9.29
2023-03-29T06:04:18.047Z,11.26
2023-03-29T06:05:49.926Z,9.36
2023-03-29T06:07:21.355Z,9.92
2023-03-29T06:08:52.637Z,8.81
2023-03-29T06:10:23.888Z,10.17
2023-03-29T06:11:55.088Z,10.85
2023-03-29T06:13:26.364Z,9.83
2023-03-29T06:14:57.661Z,11.04
2023-03-29T06:16:29.268Z,10.71
2023-03-29T06:18:00.628Z,11.50
2023-03-29T06:19:31.964Z,12.54
2023-03-29T06:21:04.057Z,11.59
2023-03-29T06:22:36.517Z,9.85
2023-03-29T06:24:08.036Z,10.61
2023-03-29T06:25:39.654Z,10.46
2023-03-29T06:27:11.003Z,10.26
2023-03-29T06:28:42.516Z,12.05
2023-03-29T06:30:13.722Z,12.83
2023-03-29T06:31:45.305Z,10.48
2023-03-29T06:33:16.712Z,10.20
2023-03-29T06:34:48.244Z,12.85
2023-03-29T06:36:19.818Z,11.48
2023-03-29T06:37:51.139Z,10.28
2023-03-29T06:39:22.563Z,10.93
2023-03-29T06:40:53.777Z,11.31
2023-03-29T06:42:25.718Z,10.41
2023-03-29T06:43:56.955Z,10.72
2023-03-29T06:47:00.224Z,11.26
2023-03-29T06:48:31.700Z,11.61
2023-03-29T06:50:04.195Z,10.47
2023-03-29T06:51:35.587Z,10.75
2023-03-29T06:53:07.137Z,10.55
2023-03-29T06:54:38.388Z,10.59
2023-03-29T06:56:09.929Z,12.56
2023-03-29T06:57:41.475Z,8.70
2023-03-29T06:59:12.818Z,9.10
2023-03-29T07:00:44.148Z,11.34
2023-03-29T07:02:15.715Z,11.96
2023-03-29T07:03:47.431Z,10.63
2023-03-29T07:05:19.656Z,11.03
2023-03-29T07:06:51.335Z,9.61
2023-03-29T07:08:23.145Z,10.12
2023-03-29T07:09:54.483Z,10.79
2023-03-29T07:11:26.019Z,9.48
2023-03-29T07:12:57.334Z,10.49
2023-03-29T07:14:28.639Z,7.99
2023-03-29T07:16:00.524Z,9.85
2023-03-29T07:17:32.040Z,9.42
2023-03-29T07:19:03.247Z,8.45
2023-03-29T07:20:35.184Z,8.96
2023-03-29T07:22:06.508Z,8.16
2023-03-29T07:23:37.994Z,10.92
2023-03-29T07:25:09.946Z,8.02
2023-03-29T07:26:52.320Z,8.45
2023-03-29T07:28:23.970Z,9.54
2023-03-29T07:29:55.406Z,8.18
2023-03-29T07:31:26.775Z,9.11
2023-03-29T07:32:58.316Z,8.87
2023-03-29T07:34:29.688Z,9.63
2023-03-29T07:36:01.838Z,9.77
2023-03-29T07:37:33.502Z,9.30
2023-03-29T07:39:05.469Z,8.40
2023-03-29T07:40:36.824Z,7.77
2023-03-29T07:42:08.160Z,11.15
2023-03-29T07:43:39.960Z,10.04
2023-03-29T07:45:11.424Z,9.29
2023-03-29T07:46:42.741Z,8.89
2023-03-29T07:48:14.279Z,9.17
2023-03-29T07:49:45.537Z,8.98
2023-03-29T07:51:17.057Z,6.93
2023-03-29T07:52:48.596Z,9.63
2023-03-29T07:54:20.293Z,8.22
2023-03-29T07:55:52.305Z,10.32
2023-03-29T07:57:23.654Z,8.27
2023-03-29T07:58:55.146Z,8.06
2023-03-29T08:00:26.608Z,8.14
2023-03-29T08:01:58.142Z,7.15
2023-03-29T08:03:29.583Z,9.93
2023-03-29T08:05:01.316Z,9.08
2023-03-29T08:06:32.719Z,8.31
2023-03-29T08:08:05.145Z,7.36
2023-03-29T08:09:36.563Z,8.42
2023-03-29T08:11:08.247Z,8.80
2023-03-29T08:12:39.686Z,8.58
2023-03-29T08:14:11.690Z,8.19
2023-03-29T08:15:42.931Z,8.25
2023-03-29T08:17:14.231Z,8.31
2023-03-29T08:18:45.750Z,7.28
2023-03-29T08:20:17.177Z,9.29
2023-03-29T08:21:48.613Z,8.52
2023-03-29T08:23:20.390Z,7.01
2023-03-29T08:24:51.620Z,7.68
2023-03-29T08:26:23.135Z,8.49
2023-03-29T08:27:54.633Z,9.14
2023-03-29T08:29:25.852Z,8.48
2023-03-29T08:30:57.302Z,7.53
2023-03-29T08:32:28.839Z,8.48
2023-03-29T08:34:00.306Z,7.19
2023-03-29T08:35:31.878Z,7.62
2023-03-29T08:37:03.236Z,7.11
2023-03-29T08:38:34.680Z,7.47
2023-03-29T08:40:06.032Z,12.44
2023-03-29T08:41:37.422Z,8.61
2023-03-29T08:43:09.121Z,7.13
2023-03-29T08:44:41.132Z,7.84
2023-03-29T08:46:12.693Z,8.71
2023-03-29T08:47:44.645Z,7.57
2023-03-29T08:49:16.101Z,8.50
2023-03-29T08:50:47.738Z,8.14
2023-03-29T08:52:19.031Z,8.54
2023-03-29T08:53:50.278Z,9.61
2023-03-29T08:55:21.835Z,10.31
2023-03-29T08:56:53.685Z,6.86
2023-03-29T08:58:25.595Z,7.67
2023-03-29T08:59:57.082Z,7.83
2023-03-29T09:01:33.625Z,9.28
2023-03-29T09:03:05.054Z,6.90
2023-03-29T09:04:36.558Z,8.75
2023-03-29T09:06:08.078Z,8.94
2023-03-29T09:07:39.525Z,6.82
2023-03-29T09:09:11.133Z,8.11
2023-03-29T09:10:42.529Z,8.74
2023-03-29T09:12:13.932Z,7.18
2023-03-29T09:13:45.550Z,8.34
2023-03-29T09:15:17.141Z,9.24
2023-03-29T09:16:48.657Z,7.64
2023-03-29T09:18:20.061Z,9.92
2023-03-29T09:20:06.837Z,8.35
2023-03-29T09:21:43.737Z,9.24
2023-03-29T09:23:30.439Z,10.48
2023-03-29T09:25:14.746Z,9.64
2023-03-29T09:26:46.086Z,10.59
2023-03-29T09:28:17.422Z,7.84
2023-03-29T09:29:48.802Z,10.24
2023-03-29T09:31:20.101Z,9.15
2023-03-29T09:32:51.598Z,9.35
2023-03-29T09:34:28.140Z,10.50
2023-03-29T09:35:59.645Z,10.47
2023-03-29T09:37:31.002Z,11.05
2023-03-29T09:39:02.319Z,10.94
2023-03-29T09:40:39.238Z,10.34
2023-03-29T09:42:10.655Z,10.29
2023-03-29T09:43:42.014Z,10.89
2023-03-29T09:45:13.563Z,8.83
2023-03-29T09:46:45.243Z,8.27
2023-03-29T09:48:16.656Z,8.75
2023-03-29T09:49:48.138Z,8.99
2023-03-29T09:51:19.562Z,8.99
2023-03-29T09:52:53.095Z,9.48
2023-03-29T09:54:24.771Z,8.68
2023-03-29T09:55:56.263Z,9.31
2023-03-29T09:57:28.822Z,11.42
2023-03-29T09:59:27.701Z,10.08
2023-03-29T10:01:37.981Z,8.41
2023-03-29T10:03:16.760Z,8.70
2023-03-29T10:04:58.261Z,9.52
2023-03-29T10:06:40.287Z,8.55
2023-03-29T10:08:11.622Z,7.88
2023-03-29T10:09:43.030Z,7.94
2023-03-29T10:13:31.752Z,8.67
2023-03-29T10:15:11.791Z,10.72
2023-03-29T10:16:51.104Z,10.00
2023-03-29T10:18:22.789Z,10.01
2023-03-29T10:19:54.429Z,8.92
2023-03-29T10:21:25.930Z,10.95
2023-03-29T10:22:57.497Z,8.00
2023-03-29T10:24:28.795Z,7.52
2023-03-29T10:26:00.444Z,7.90
2023-03-29T10:27:32.020Z,7.00
2023-03-29T10:29:03.397Z,8.17
2023-03-29T10:30:34.770Z,8.59
2023-03-29T10:32:06.232Z,9.28
2023-03-29T10:33:37.911Z,10.30
2023-03-29T10:35:09.517Z,7.11
2023-03-29T10:36:41.030Z,7.29
2023-03-29T10:38:12.435Z,8.46
2023-03-29T10:39:43.992Z,10.50
2023-03-29T10:41:15.373Z,6.92
2023-03-29T10:42:46.797Z,7.64
2023-03-29T10:44:18.505Z,8.06
2023-03-29T10:45:49.875Z,7.21
2023-03-29T10:47:21.492Z,9.51
2023-03-29T10:48:53.161Z,8.60
2023-03-29T10:50:24.634Z,8.02
2023-03-29T10:51:55.996Z,8.40
2023-03-29T10:53:27.458Z,7.23
2023-03-29T10:54:58.788Z,7.13
2023-03-29T10:56:30.338Z,6.75
2023-03-29T10:58:01.657Z,8.48
2023-03-29T10:59:33.016Z,8.88
2023-03-29T11:01:04.692Z,8.47
2023-03-29T11:02:36.428Z,8.48
2023-03-29T11:04:07.952Z,7.42
2023-03-29T11:05:40.403Z,8.08
2023-03-29T11:07:11.723Z,6.63
2023-03-29T11:08:43.437Z,6.60
2023-03-29T11:10:14.925Z,8.78
2023-03-29T11:11:46.375Z,6.92
2023-03-29T11:13:17.727Z,6.74
2023-03-29T11:14:49.361Z,6.59
2023-03-29T11:16:21.040Z,8.13
2023-03-29T11:17:52.702Z,7.05
2023-03-29T11:19:24.175Z,7.14
2023-03-29T11:20:55.513Z,6.01
2023-03-29T11:22:27.267Z,6.64
2023-03-29T11:23:58.711Z,9.09
2023-03-29T11:25:30.162Z,8.87
2023-03-29T11:27:01.524Z,9.15
2023-03-29T11:28:32.970Z,8.60
2023-03-29T11:30:04.515Z,7.95
2023-03-29T11:31:38.826Z,7.07
2023-03-29T11:33:10.745Z,7.59
2023-03-29T11:34:42.356Z,6.80
2023-03-29T11:36:13.958Z,7.14
2023-03-29T11:37:45.298Z,8.98
2023-03-29T11:39:16.983Z,9.52
2023-03-29T11:40:48.715Z,8.31
2023-03-29T11:42:20.409Z,8.15
2023-03-29T11:43:52.117Z,9.33
2023-03-29T11:45:23.993Z,8.43
2023-03-29T11:46:55.758Z,8.62
2023-03-29T11:48:27.474Z,9.27
2023-03-29T11:49:58.893Z,9.18
2023-03-29T11:51:30.404Z,9.01
2023-03-29T11:53:01.738Z,6.84
2023-03-29T11:54:33.107Z,6.28
2023-03-29T11:56:04.377Z,11.18
2023-03-29T11:57:35.768Z,7.91
2023-03-29T11:59:07.481Z,7.85
2023-03-29T12:00:39.059Z,7.33
2023-03-29T12:02:10.635Z,5.36
2023-03-29T12:03:43.129Z,6.93
2023-03-29T12:05:16.181Z,7.97
2023-03-29T12:06:47.671Z,8.09
2023-03-29T12:08:19.232Z,7.62
2023-03-29T12:09:50.828Z,9.22
2023-03-29T12:11:22.123Z,6.78
2023-03-29T12:12:53.660Z,8.90
2023-03-29T12:14:27.359Z,7.16
2023-03-29T12:15:59.492Z,7.55
2023-03-29T12:17:30.975Z,7.47
2023-03-29T12:19:02.389Z,9.69
2023-03-29T12:20:33.794Z,7.05
2023-03-29T12:22:05.162Z,7.46
2023-03-29T12:23:36.596Z,8.30
2023-03-29T12:25:08.735Z,9.16
2023-03-29T12:26:41.701Z,10.37
2023-03-29T12:28:13.278Z,8.04
2023-03-29T12:29:44.736Z,8.36
2023-03-29T12:31:16.121Z,6.27
2023-03-29T12:32:48.369Z,5.74
2023-03-29T12:34:19.956Z,5.02
2023-03-29T12:35:51.461Z,6.93
2023-03-29T12:37:22.839Z,7.19
2023-03-29T12:38:54.344Z,7.74
2023-03-29T12:40:25.843Z,8.28
2023-03-29T12:41:57.506Z,7.47
2023-03-29T12:43:29.111Z,6.42
2023-03-29T12:45:00.668Z,5.62
2023-03-29T12:46:32.214Z,5.65
2023-03-29T12:48:03.577Z,6.31
2023-03-29T12:49:35.038Z,6.81
2023-03-29T12:51:06.725Z,6.22
2023-03-29T12:52:38.242Z,6.89
2023-03-29T12:54:09.615Z,7.98
2023-03-29T12:55:41.182Z,6.63
2023-03-29T12:57:12.589Z,6.66
2023-03-29T12:58:44.153Z,6.84
2023-03-29T13:00:15.539Z,8.83
2023-03-29T13:01:47.274Z,6.45
2023-03-29T13:03:18.851Z,6.53
2023-03-29T13:04:55.634Z,5.63
2023-03-29T13:06:27.176Z,7.86
2023-03-29T13:07:58.623Z,5.65
2023-03-29T13:09:30.101Z,8.56
2023-03-29T13:11:01.444Z,6.52
2023-03-29T13:12:33.737Z,7.76
2023-03-29T13:14:05.210Z,7.34
2023-03-29T13:15:36.558Z,6.47
2023-03-29T13:17:18.467Z,7.26
2023-03-29T13:18:50.412Z,8.16
2023-03-29T13:20:21.772Z,9.87
2023-03-29T13:21:53.147Z,6.23
2023-03-29T13:23:24.909Z,8.30
2023-03-29T13:24:56.443Z,8.22
2023-03-29T13:26:27.870Z,6.65
2023-03-29T13:27:59.330Z,6.54
2023-03-29T13:29:30.736Z,8.30
2023-03-29T13:31:02.374Z,8.23
2023-03-29T13:32:33.890Z,7.96
2023-03-29T13:34:05.419Z,6.98
2023-03-29T13:35:36.901Z,9.47
2023-03-29T13:37:08.444Z,8.03
2023-03-29T13:38:39.899Z,8.68
2023-03-29T13:40:11.306Z,6.58
2023-03-29T13:41:42.720Z,6.20
2023-03-29T13:43:14.135Z,9.55
2023-03-29T13:44:45.898Z,7.08
2023-03-29T13:46:17.507Z,6.65
2023-03-29T13:47:58.799Z,8.80
2023-03-29T13:49:36.295Z,7.21
2023-03-29T13:51:07.628Z,7.51
2023-03-29T13:52:54.062Z,7.42
2023-03-29T13:54:30.621Z,8.84
2023-03-29T13:56:02.273Z,8.56
2023-03-29T13:57:34.060Z,7.21
2023-03-29T13:59:05.507Z,7.25
2023-03-29T14:01:01.545Z,8.65
2023-03-29T14:02:40.994Z,8.36
2023-03-29T14:04:12.490Z,6.46
2023-03-29T14:05:43.889Z,8.44
2023-03-29T14:07:15.315Z,8.26
2023-03-29T14:08:46.758Z,8.33
2023-03-29T14:10:18.231Z,9.10
2023-03-29T14:11:49.696Z,8.56
2023-03-29T14:13:22.302Z,8.41
2023-03-29T14:14:59.092Z,8.61
2023-03-29T14:16:30.932Z,8.23
2023-03-29T14:18:07.576Z,7.13
2023-03-29T14:19:38.975Z,6.07
2023-03-29T14:21:10.341Z,7.68
2023-03-29T14:22:41.741Z,6.57
2023-03-29T14:24:13.363Z,8.62
2023-03-29T14:25:44.950Z,7.03
2023-03-29T14:27:16.358Z,6.82
2023-03-29T14:28:47.886Z,6.08
2023-03-29T14:30:19.252Z,8.03
2023-03-29T14:31:51.178Z,6.81
2023-03-29T14:33:23.184Z,5.21
2023-03-29T14:34:54.724Z,6.48
2023-03-29T14:36:26.660Z,5.70
2023-03-29T14:37:58.065Z,5.91
2023-03-29T14:39:29.491Z,6.15
2023-03-29T14:41:00.837Z,7.26
2023-03-29T14:42:32.492Z,6.26
2023-03-29T14:44:04.108Z,6.56
2023-03-29T14:45:35.449Z,5.75
2023-03-29T14:47:06.820Z,7.00
2023-03-29T14:48:38.487Z,5.54
2023-03-29T14:50:10.286Z,6.66
2023-03-29T14:51:41.615Z,6.74
2023-03-29T14:53:13.142Z,7.28
2023-03-29T14:54:44.640Z,7.14
2023-03-29T14:56:15.979Z,7.59
2023-03-29T14:57:47.568Z,6.52
2023-03-29T14:59:18.965Z,8.12
2023-03-29T15:00:50.298Z,8.22
2023-03-29T15:02:21.875Z,8.00
2023-03-29T15:03:54.949Z,8.06
2023-03-29T15:05:26.715Z,6.51
2023-03-29T15:06:58.281Z,5.87
2023-03-29T15:08:29.851Z,6.93
2023-03-29T15:10:01.439Z,7.27
2023-03-29T15:11:38.235Z,7.03
2023-03-29T15:13:09.654Z,5.45
2023-03-29T15:14:41.039Z,7.98
2023-03-29T15:16:12.812Z,7.63
2023-03-29T15:17:51.924Z,6.08
2023-03-29T15:19:24.190Z,6.73
2023-03-29T15:20:55.962Z,6.84
2023-03-29T15:22:27.340Z,6.52
2023-03-29T15:23:59.176Z,7.02
2023-03-29T15:25:30.658Z,6.86
2023-03-29T15:27:02.085Z,6.40
2023-03-29T15:28:33.544Z,6.94
2023-03-29T15:30:04.878Z,7.60
2023-03-29T15:31:36.292Z,7.04
2023-03-29T15:33:07.822Z,6.21
2023-03-29T15:37:01.713Z,8.58
2023-03-29T15:38:43.094Z,5.90
2023-03-29T15:40:16.488Z,8.09
2023-03-29T15:41:48.115Z,8.01
2023-03-29T15:43:19.523Z,6.02
2023-03-29T15:44:51.104Z,8.09
2023-03-29T15:46:22.490Z,7.86
2023-03-29T15:47:54.032Z,7.32
2023-03-29T15:49:26.659Z,8.47
2023-03-29T15:51:01.520Z,5.69
2023-03-29T15:52:34.175Z,7.69
2023-03-29T15:54:05.685Z,5.40
2023-03-29T15:55:37.137Z,6.72
2023-03-29T15:57:08.700Z,6.45
2023-03-29T15:58:40.145Z,6.69
2023-03-29T16:00:11.561Z,7.02
2023-03-29T16:01:43.091Z,5.86
2023-03-29T16:03:15.066Z,7.58
2023-03-29T16:04:46.790Z,7.59
2023-03-29T16:06:19.088Z,6.25
2023-03-29T16:07:50.578Z,6.92
2023-03-29T16:09:22.603Z,5.31
2023-03-29T16:10:54.219Z,4.79
2023-03-29T16:12:26.553Z,5.37
2023-03-29T16:13:57.913Z,5.32
2023-03-29T16:15:29.571Z,6.31
2023-03-29T16:17:01.409Z,6.13
2023-03-29T16:18:33.401Z,6.55
2023-03-29T16:20:04.833Z,5.14
2023-03-29T16:21:36.200Z,6.08
2023-03-29T16:23:07.556Z,5.90
2023-03-29T16:24:39.110Z,4.81
2023-03-29T16:26:10.516Z,4.75
2023-03-29T16:27:41.993Z,7.70
2023-03-29T16:29:13.273Z,5.87
2023-03-29T16:30:44.685Z,5.79
2023-03-29T16:32:16.341Z,5.87
2023-03-29T16:33:47.741Z,6.84
2023-03-29T16:35:19.061Z,6.52
2023-03-29T16:36:50.383Z,6.64
2023-03-29T16:38:26.822Z,4.95
2023-03-29T16:39:58.169Z,6.00
2023-03-29T16:41:29.866Z,7.48
2023-03-29T16:43:01.331Z,4.73
2023-03-29T16:44:32.757Z,4.01
2023-03-29T16:46:04.372Z,3.71
2023-03-29T16:47:36.127Z,6.33
2023-03-29T16:49:07.461Z,5.51
2023-03-29T16:50:38.893Z,5.37
2023-03-29T16:52:10.244Z,4.33
2023-03-29T16:53:41.570Z,4.76
2023-03-29T16:55:12.883Z,5.72
2023-03-29T16:56:44.333Z,5.02
2023-03-29T16:58:15.864Z,4.82
2023-03-29T16:59:47.377Z,5.11
2023-03-29T17:01:18.742Z,6.04
2023-03-29T17:02:50.166Z,5.76
2023-03-29T17:04:21.928Z,4.63
2023-03-29T17:05:53.591Z,4.25
2023-03-29T17:07:24.901Z,5.37
2023-03-29T17:08:56.242Z,5.24
2023-03-29T17:10:27.601Z,4.48
2023-03-29T17:11:59.146Z,5.66
2023-03-29T17:13:30.708Z,6.07
2023-03-29T17:15:02.023Z,4.18
2023-03-29T17:16:33.500Z,5.08
2023-03-29T17:18:04.867Z,4.72
2023-03-29T17:19:36.376Z,4.63
2023-03-29T17:21:07.678Z,4.63
2023-03-29T17:22:39.035Z,5.96
2023-03-29T17:24:10.386Z,7.13
2023-03-29T17:25:41.733Z,6.40
2023-03-29T17:27:13.022Z,5.82
2023-03-29T17:28:44.332Z,5.01
2023-03-29T17:30:15.648Z,5.83
2023-03-29T17:31:47.004Z,4.90
2023-03-29T17:33:20.965Z,4.82
2023-03-29T17:34:53.714Z,4.61
2023-03-29T17:36:25.080Z,5.15
2023-03-29T17:37:56.513Z,5.68
2023-03-29T17:39:27.818Z,5.01
2023-03-29T17:40:59.308Z,5.74
2023-03-29T17:42:30.669Z,5.64
2023-03-29T17:44:02.093Z,7.53
2023-03-29T17:45:33.656Z,7.18
2023-03-29T17:47:05.077Z,6.12
2023-03-29T17:48:36.455Z,5.68
2023-03-29T17:50:07.902Z,7.08
2023-03-29T17:51:39.233Z,5.15
2023-03-29T17:53:10.792Z,5.69
2023-03-29T17:54:42.263Z,4.61
2023-03-29T17:56:13.639Z,5.68
2023-03-29T17:57:45.099Z,4.85
2023-03-29T17:59:16.467Z,5.58
2023-03-29T18:00:48.058Z,5.81
2023-03-29T18:02:19.512Z,5.22
2023-03-29T18:03:50.906Z,5.30
2023-03-29T18:05:22.819Z,4.81
2023-03-29T18:06:54.108Z,5.66
2023-03-29T18:08:25.521Z,5.07
2023-03-29T18:09:57.036Z,5.56
2023-03-29T18:11:28.487Z,5.25
2023-03-29T18:12:59.991Z,5.42
2023-03-29T18:14:31.372Z,4.18
2023-03-29T18:16:03.304Z,6.18
2023-03-29T18:18:00.204Z,4.86
2023-03-29T18:20:01.659Z,6.31
2023-03-29T18:21:53.727Z,5.47
2023-03-29T18:23:25.378Z,4.87
2023-03-29T18:24:56.769Z,6.03
2023-03-29T18:26:28.086Z,6.34
2023-03-29T18:27:59.449Z,5.92
2023-03-29T18:29:31.100Z,5.06
2023-03-29T18:31:02.479Z,7.77
2023-03-29T18:32:34.020Z,5.55
2023-03-29T18:34:05.455Z,6.34
2023-03-29T18:35:36.809Z,5.45
2023-03-29T18:37:08.613Z,5.99
2023-03-29T18:38:40.701Z,6.30
2023-03-29T18:40:12.279Z,5.61
2023-03-29T18:41:43.650Z,5.74
2023-03-29T18:43:15.157Z,8.47
2023-03-29T18:44:46.562Z,6.24
2023-03-29T18:46:17.960Z,7.04
2023-03-29T18:47:49.431Z,6.83
2023-03-29T18:49:20.814Z,6.48
2023-03-29T18:50:52.245Z,8.04
2023-03-29T18:52:23.763Z,7.96
2023-03-29T18:53:55.263Z,6.33
2023-03-29T18:55:26.709Z,6.66
2023-03-29T18:56:59.298Z,6.33
2023-03-29T18:58:30.772Z,8.24
2023-03-29T19:00:02.121Z,8.69
2023-03-29T19:01:33.523Z,7.05
2023-03-29T19:03:04.877Z,5.62
2023-03-29T19:04:36.478Z,6.48
2023-03-29T19:06:07.805Z,7.32
2023-03-29T19:07:39.117Z,6.13
2023-03-29T19:09:10.389Z,5.99
2023-03-29T19:10:41.774Z,6.10
2023-03-29T19:12:13.097Z,5.43
2023-03-29T19:13:44.639Z,5.76
2023-03-29T19:15:16.131Z,6.00
2023-03-29T19:16:47.422Z,5.54
2023-03-29T19:18:18.752Z,6.45
2023-03-29T19:19:50.133Z,5.97
2023-03-29T19:21:21.643Z,7.86
2023-03-29T19:22:53.043Z,8.06
2023-03-29T19:24:24.371Z,6.60
2023-03-29T19:25:55.730Z,7.99
2023-03-29T19:27:27.082Z,5.17
2023-03-29T19:28:58.521Z,4.42
2023-03-29T19:30:30.126Z,4.59
2023-03-29T19:32:01.452Z,4.80
2023-03-29T19:33:32.839Z,5.00
2023-03-29T19:35:04.185Z,6.96
2023-03-29T19:36:35.516Z,4.95
2023-03-29T19:38:06.986Z,5.16
2023-03-29T19:39:38.419Z,6.72
2023-03-29T19:41:09.796Z,6.13
2023-03-29T19:42:41.715Z,6.62
2023-03-29T19:44:13.204Z,4.09
2023-03-29T19:45:44.643Z,5.12
2023-03-29T19:47:16.174Z,4.75
2023-03-29T19:48:47.653Z,6.84
2023-03-29T19:50:19.254Z,5.21
2023-03-29T19:51:50.648Z,5.84
2023-03-29T19:53:52.091Z,5.40
2023-03-29T19:55:23.521Z,6.07
2023-03-29T19:56:55.206Z,5.29
2023-03-29T19:58:26.950Z,6.90
2023-03-29T19:59:59.175Z,6.10
2023-03-29T20:01:30.827Z,4.98
2023-03-29T20:03:02.363Z,6.79
2023-03-29T20:04:33.969Z,5.79
2023-03-29T20:06:05.499Z,5.91
2023-03-29T20:07:36.827Z,5.29
2023-03-29T20:09:08.186Z,5.00
2023-03-29T20:10:39.773Z,5.53
2023-03-29T20:12:11.073Z,6.48
2023-03-29T20:13:42.380Z,5.94
2023-03-29T20:15:13.836Z,6.64
2023-03-29T20:16:45.178Z,7.27
2023-03-29T20:18:16.581Z,5.08
2023-03-29T20:19:48.021Z,6.95
2023-03-29T20:21:19.596Z,6.43
2023-03-29T20:22:50.913Z,6.17
2023-03-29T20:24:22.281Z,6.19
2023-03-29T20:25:53.636Z,6.16
2023-03-29T20:27:24.907Z,6.56
2023-03-29T20:28:56.319Z,7.19
2023-03-29T20:30:43.180Z,7.31